Time;durP1;ratioP1;P1;durP2;ratioP2;P2;SDS_P1;SDS_P2;PMS_P1;PMS_P2;Temp;Humidity;BMP_temperature;BMP_pressure;BME280_temperature;BME280_humidity;BME280_pressure;Samples;Min_cycle;Max_cycle;Signal;HPM_P1;HPM_P2
2022/01/23 00:01:49;;;;;;;64.70;29.08;;;;;;;4.22;100.00;103540.69;5036294;28;20057;-49
2022/01/23 00:04:14;;;;;;;59.92;28.83;;;;;;;4.22;100.00;103542.50;5035947;28;20394;-45
2022/01/23 00:06:40;;;;;;;58.55;29.20;;;;;;;4.24;100.00;103541.53;5018605;28;20020;-47
2022/01/23 00:09:05;;;;;;;58.95;30.13;;;;;;;4.23;100.00;103539.78;5053889;28;20017;-46
2022/01/23 00:11:32;;;;;;;63.03;30.23;;;;;;;4.25;100.00;103540.59;5037244;28;20042;-49
2022/01/23 00:19:11;;;;;;;60.85;29.63;;;;;;;4.24;100.00;103538.00;5054546;28;20107;-49
2022/01/23 00:21:39;;;;;;;59.25;28.90;;;;;;;4.23;100.00;103533.66;5058442;28;20122;-45
2022/01/23 00:31:58;;;;;;;58.38;28.77;;;;;;;4.26;100.00;103526.47;5056336;28;20609;-46
2022/01/23 00:34:23;;;;;;;59.13;28.27;;;;;;;4.26;100.00;103517.63;5057777;28;20024;-47
2022/01/23 00:36:49;;;;;;;59.65;28.33;;;;;;;4.26;100.00;103520.28;5060179;28;20416;-45
2022/01/23 00:39:14;;;;;;;58.97;27.90;;;;;;;4.25;100.00;103527.38;5060241;28;20532;-47
2022/01/23 00:41:40;;;;;;;61.10;29.52;;;;;;;4.23;100.00;103521.28;5060426;28;20094;-45
2022/01/23 00:44:05;;;;;;;60.50;30.15;;;;;;;4.22;100.00;103510.75;5059672;28;20458;-47
2022/01/23 00:46:34;;;;;;;56.42;28.52;;;;;;;4.24;100.00;103517.72;5041807;28;20457;-48
2022/01/23 00:51:34;;;;;;;58.00;28.13;;;;;;;4.20;100.00;103510.78;5059217;28;20403;-44
2022/01/23 00:54:01;;;;;;;60.22;27.52;;;;;;;4.22;100.00;103510.75;5060549;28;20229;-47
2022/01/23 00:56:27;;;;;;;53.20;27.40;;;;;;;4.22;100.00;103516.03;5059584;28;20097;-46
2022/01/23 00:58:53;;;;;;;55.67;27.23;;;;;;;4.21;100.00;103504.59;5059531;28;20109;-48
2022/01/23 01:01:19;;;;;;;60.72;27.63;;;;;;;4.22;100.00;103508.09;5059398;28;20051;-46
2022/01/23 01:03:44;;;;;;;59.70;26.83;;;;;;;4.17;100.00;103496.81;5059070;28;20559;-46
2022/01/23 01:06:10;;;;;;;60.55;26.45;;;;;;;4.20;100.00;103502.00;5059552;28;20035;-46
2022/01/23 01:08:36;;;;;;;61.55;27.33;;;;;;;4.22;100.00;103511.59;5059258;28;20466;-46
2022/01/23 01:11:48;;;;;;;57.17;28.52;;;;;;;4.23;100.00;103505.41;5059927;28;20028;-48
2022/01/23 01:33:33;;;;;;;55.40;27.02;;;;;;;4.25;100.00;103524.72;5038095;28;20045;-45
2022/01/23 01:35:29;;;;;;;53.85;26.52;;;;;;;4.26;100.00;103521.16;5023945;28;20216;-45
2022/01/23 01:37:55;;;;;;;56.50;26.90;;;;;;;4.26;100.00;103515.88;5054389;28;20107;-45
2022/01/23 01:40:22;;;;;;;57.25;25.38;;;;;;;4.21;100.00;103515.19;5038682;28;20186;-45
2022/01/23 01:42:48;;;;;;;51.35;25.65;;;;;;;4.25;100.00;103519.44;5039460;28;20056;-45
2022/01/23 01:45:21;;;;;;;53.75;25.92;;;;;;;4.25;100.00;103527.38;5037524;28;20586;-45
2022/01/23 01:47:50;;;;;;;61.33;26.27;;;;;;;4.25;100.00;103530.00;5038208;28;20214;-47
2022/01/23 01:50:16;;;;;;;56.83;25.55;;;;;;;4.25;100.00;103529.16;5037907;28;20420;-49
2022/01/23 01:52:42;;;;;;;49.20;24.98;;;;;;;4.25;100.00;103530.00;5039446;28;20059;-46
2022/01/23 01:55:11;;;;;;;52.00;25.08;;;;;;;4.27;100.00;103535.25;5038656;28;20425;-46
2022/01/23 01:57:42;;;;;;;54.90;25.17;;;;;;;4.26;100.00;103526.47;5037804;28;20380;-47
2022/01/23 02:00:25;;;;;;;51.92;25.42;;;;;;;4.28;100.00;103531.69;5038715;28;20036;-45
2022/01/23 02:10:50;;;;;;;49.45;24.33;;;;;;;4.28;100.00;103531.69;5038806;28;20372;-47
2022/01/23 02:13:20;;;;;;;53.83;25.55;;;;;;;4.27;100.00;103522.88;5037942;28;20029;-47
2022/01/23 02:51:32;;;;;;;48.38;23.27;;;;;;;4.19;100.00;103493.22;5056750;28;20170;-50
2022/01/23 02:56:47;;;;;;;43.53;21.85;;;;;;;4.21;100.00;103486.09;5056553;28;20036;-47
2022/01/23 02:59:21;;;;;;;40.53;20.73;;;;;;;4.22;100.00;103484.28;5057278;28;20085;-48
2022/01/23 03:02:01;;;;;;;49.13;21.67;;;;;;;4.21;100.00;103488.72;5057197;28;20112;-47
2022/01/23 03:04:27;;;;;;;47.20;21.92;;;;;;;4.21;100.00;103490.47;5055300;28;20448;-47
2022/01/23 03:30:39;;;;;;;44.13;21.35;;;;;;;4.20;100.00;103510.78;5056850;28;20047;-50
2022/01/23 03:33:04;;;;;;;44.97;21.05;;;;;;;4.20;100.00;103500.22;5056404;28;20017;-46
2022/01/23 03:35:30;;;;;;;42.25;21.13;;;;;;;4.21;100.00;103501.97;5055661;28;20385;-47
2022/01/23 03:37:56;;;;;;;46.47;22.80;;;;;;;4.22;100.00;103498.38;5056143;28;20060;-46
2022/01/23 03:40:22;;;;;;;44.58;21.88;;;;;;;4.22;100.00;103505.44;5056464;28;20115;-48
2022/01/23 03:42:55;;;;;;;39.67;21.55;;;;;;;4.20;100.00;103502.00;5057442;28;20107;-46
2022/01/23 03:50:40;;;;;;;40.72;20.60;;;;;;;4.17;100.00;103494.16;5056578;28;20094;-48
2022/01/23 03:53:05;;;;;;;41.60;21.38;;;;;;;4.18;100.00;103506.50;5056037;28;20070;-47
2022/01/23 03:55:31;;;;;;;50.05;22.15;;;;;;;4.18;100.00;103504.69;5057048;28;20025;-48
2022/01/23 03:57:57;;;;;;;43.20;21.63;;;;;;;4.19;100.00;103516.13;5056758;28;20515;-46
2022/01/23 04:00:23;;;;;;;42.65;21.65;;;;;;;4.22;100.00;103518.69;5056094;28;20068;-49
2022/01/23 04:02:49;;;;;;;42.63;21.15;;;;;;;4.22;100.00;103523.97;5055696;28;20031;-48
2022/01/23 04:05:14;;;;;;;45.55;22.10;;;;;;;4.22;100.00;103518.69;5055928;28;20032;-48
2022/01/23 04:07:40;;;;;;;46.70;21.83;;;;;;;4.21;100.00;103516.94;5057566;28;20024;-45
2022/01/23 04:10:05;;;;;;;44.63;21.42;;;;;;;4.19;100.00;103521.44;5060522;28;20025;-45
2022/01/23 04:15:23;;;;;;;44.97;22.13;;;;;;;4.18;100.00;103527.66;5060742;28;20099;-44
2022/01/23 04:45:24;;;;;;;50.72;21.67;;;;;;;4.07;100.00;103512.13;5060479;28;20480;-48
2022/01/23 05:04:19;;;;;;;42.03;21.67;;;;;;;4.08;100.00;103520.00;5058652;28;20040;-45
2022/01/23 05:07:02;;;;;;;47.38;21.27;;;;;;;4.05;100.00;103517.47;5059432;28;20040;-45
2022/01/23 05:09:29;;;;;;;51.40;22.48;;;;;;;4.05;100.00;103525.41;5058907;28;20033;-46
2022/01/23 05:11:57;;;;;;;42.28;21.50;;;;;;;4.05;100.00;103527.19;5059683;28;20024;-46
2022/01/23 05:14:29;;;;;;;44.45;22.00;;;;;;;4.05;100.00;103525.41;5059165;28;20584;-49
2022/01/23 05:16:55;;;;;;;50.40;22.70;;;;;;;4.06;100.00;103523.66;5058908;28;20440;-45
2022/01/23 05:19:21;;;;;;;50.47;23.38;;;;;;;4.06;100.00;103521.84;5057296;28;20037;-44
2022/01/23 05:24:19;;;;;;;46.33;22.48;;;;;;;4.07;100.00;103531.53;5058818;28;20029;-45
2022/01/23 05:26:46;;;;;;;52.83;23.05;;;;;;;4.08;100.00;103532.38;5059584;28;20526;-49
2022/01/23 05:29:13;;;;;;;47.30;23.17;;;;;;;4.08;100.00;103535.88;5058323;28;20583;-46
2022/01/23 05:31:39;;;;;;;48.85;21.77;;;;;;;4.07;100.00;103526.25;5058609;28;20021;-46
2022/01/23 05:34:04;;;;;;;53.35;22.85;;;;;;;4.06;100.00;103529.78;5058424;28;20028;-48
2022/01/23 05:36:29;;;;;;;51.17;23.35;;;;;;;4.07;100.00;103528.00;5058761;28;20465;-49
2022/01/23 05:38:55;;;;;;;45.70;23.73;;;;;;;4.06;100.00;103527.16;5058537;28;20033;-49
2022/01/23 05:41:20;;;;;;;51.65;22.45;;;;;;;4.07;100.00;103536.81;5059230;28;20051;-49
2022/01/23 05:43:45;;;;;;;46.42;23.23;;;;;;;4.06;100.00;103529.78;5058847;28;20028;-47
2022/01/23 05:46:11;;;;;;;52.03;21.80;;;;;;;4.07;100.00;103526.25;5059053;28;20546;-47
2022/01/23 05:48:36;;;;;;;47.95;22.30;;;;;;;4.08;100.00;103533.25;5057604;28;20028;-47
2022/01/23 05:51:02;;;;;;;50.28;22.63;;;;;;;4.10;100.00;103535.84;5059162;28;20442;-48
2022/01/23 05:53:27;;;;;;;54.33;23.10;;;;;;;4.10;100.00;103533.19;5058161;28;20031;-48
2022/01/23 05:55:52;;;;;;;47.72;23.23;;;;;;;4.11;100.00;103534.94;5058803;28;20024;-48
2022/01/23 05:58:18;;;;;;;50.13;22.20;;;;;;;4.12;100.00;103531.34;5057834;28;20511;-46
2022/01/23 06:00:43;;;;;;;52.80;22.92;;;;;;;4.11;100.00;103532.28;5058007;28;20032;-44
2022/01/23 06:03:08;;;;;;;45.20;23.08;;;;;;;4.11;100.00;103529.66;5057160;28;20500;-45
2022/01/23 06:05:33;;;;;;;49.03;22.80;;;;;;;4.11;100.00;103527.00;5057600;28;20077;-45
2022/01/23 06:07:59;;;;;;;49.60;23.17;;;;;;;4.11;100.00;103533.16;5058372;28;20726;-44
2022/01/23 06:10:27;;;;;;;57.63;25.13;;;;;;;4.07;100.00;103517.41;5058093;28;20108;-49
2022/01/23 06:12:53;;;;;;;46.30;21.95;;;;;;;4.09;100.00;103529.69;5058523;28;20059;-51
2022/01/23 06:15:19;;;;;;;51.70;22.95;;;;;;;4.12;100.00;103536.63;5057130;28;20481;-46
2022/01/23 06:17:45;;;;;;;52.58;22.92;;;;;;;4.11;100.00;103530.50;5058120;28;20400;-47
2022/01/23 06:20:13;;;;;;;46.78;23.42;;;;;;;4.09;100.00;103532.34;5056916;28;20084;-49
2022/01/23 06:22:38;;;;;;;51.00;22.95;;;;;;;4.07;100.00;103525.34;5057951;28;20032;-48
2022/01/23 06:25:07;;;;;;;56.10;23.83;;;;;;;4.08;100.00;103527.94;5040291;28;20019;-49
2022/01/23 06:27:33;;;;;;;47.20;22.30;;;;;;;4.06;100.00;103534.22;5058126;28;20085;-49
2022/01/23 06:29:59;;;;;;;55.05;24.70;;;;;;;4.05;100.00;103532.47;5057789;28;20376;-45
2022/01/23 06:32:24;;;;;;;54.42;24.13;;;;;;;4.05;100.00;103528.06;5056956;28;20110;-47
2022/01/23 06:34:50;;;;;;;53.85;24.05;;;;;;;4.06;100.00;103531.59;5058258;28;20337;-47
2022/01/23 06:37:16;;;;;;;46.97;23.20;;;;;;;4.07;100.00;103544.75;5056138;28;20593;-48
2022/01/23 06:39:41;;;;;;;46.33;22.35;;;;;;;4.08;100.00;103532.38;5057667;28;20084;-46
2022/01/23 06:42:08;;;;;;;48.80;23.63;;;;;;;4.08;100.00;103533.25;5058297;28;20139;-46
2022/01/23 06:44:33;;;;;;;57.97;24.45;;;;;;;4.08;100.00;103540.31;5057118;28;20144;-47
2022/01/23 06:46:59;;;;;;;52.35;23.55;;;;;;;4.09;100.00;103544.66;5057809;28;20123;-47
2022/01/23 06:49:24;;;;;;;53.20;23.80;;;;;;;4.09;100.00;103548.19;5057164;28;20063;-47
2022/01/23 06:51:51;;;;;;;49.33;24.10;;;;;;;4.09;100.00;103548.19;5057177;28;20035;-47
2022/01/23 06:54:16;;;;;;;48.90;24.08;;;;;;;4.09;100.00;103542.91;5056852;28;20078;-48
2022/01/23 06:56:41;;;;;;;54.15;24.60;;;;;;;4.08;100.00;103545.59;5039948;28;20028;-46
2022/01/23 06:59:07;;;;;;;48.67;23.67;;;;;;;4.08;100.00;103549.09;5056326;28;20017;-46
2022/01/23 07:01:32;;;;;;;53.00;23.33;;;;;;;4.08;100.00;103550.91;5058421;28;20201;-46
2022/01/23 07:03:58;;;;;;;50.25;23.60;;;;;;;4.08;100.00;103556.19;5056921;28;20016;-47
2022/01/23 07:06:23;;;;;;;48.70;22.80;;;;;;;4.08;100.00;103559.69;5056571;28;20046;-48
2022/01/23 07:08:48;;;;;;;46.90;24.23;;;;;;;4.08;100.00;103561.47;5056675;28;20308;-50
2022/01/23 07:11:14;;;;;;;53.40;23.15;;;;;;;4.09;100.00;103569.34;5057096;28;20016;-50
2022/01/23 07:13:39;;;;;;;55.05;22.77;;;;;;;4.11;100.00;103566.66;5059336;28;20523;-45
2022/01/23 07:16:06;;;;;;;48.17;22.83;;;;;;;4.08;100.00;103564.97;5056404;28;20134;-44
2022/01/23 07:18:32;;;;;;;51.92;23.73;;;;;;;4.10;100.00;103562.28;5055437;28;20025;-45
2022/01/23 07:20:57;;;;;;;48.30;23.95;;;;;;;4.07;100.00;103568.56;5056242;28;20019;-47
2022/01/23 07:23:23;;;;;;;46.85;22.73;;;;;;;4.07;100.00;103572.97;5056083;28;20024;-46
2022/01/23 07:25:49;;;;;;;57.45;24.42;;;;;;;4.07;100.00;103579.13;5055782;28;20027;-47
2022/01/23 07:28:17;;;;;;;50.88;23.80;;;;;;;4.01;100.00;103578.47;5055603;28;20032;-46
2022/01/23 07:31:04;;;;;;;48.97;23.50;;;;;;;4.05;100.00;103594.16;5052950;28;20020;-44
2022/01/23 07:33:30;;;;;;;52.65;24.48;;;;;;;4.05;100.00;103593.31;5045627;28;20145;-47
2022/01/23 07:35:55;;;;;;;50.53;24.20;;;;;;;4.05;100.00;103595.94;5055730;28;20099;-44
2022/01/23 07:38:20;;;;;;;50.72;24.58;;;;;;;4.05;100.00;103601.25;5035186;28;20074;-45
2022/01/23 07:40:49;;;;;;;60.05;24.20;;;;;;;4.05;100.00;103601.25;5054832;28;20032;-47
2022/01/23 07:43:14;;;;;;;48.47;23.95;;;;;;;4.05;100.00;103606.53;5016233;28;20120;-46
2022/01/23 07:45:40;;;;;;;52.38;25.08;;;;;;;4.05;100.00;103601.25;5055905;28;20103;-47
2022/01/23 07:48:06;;;;;;;54.75;24.55;;;;;;;4.08;100.00;103606.44;5054819;28;20024;-47
2022/01/23 07:50:32;;;;;;;53.78;24.23;;;;;;;4.09;100.00;103614.31;5055230;28;20043;-45
2022/01/23 07:52:57;;;;;;;61.70;26.48;;;;;;;4.10;100.00;103605.44;5053272;28;20143;-46
2022/01/23 07:55:22;;;;;;;50.88;24.75;;;;;;;4.07;100.00;103600.28;5055470;28;20119;-45
2022/01/23 07:57:48;;;;;;;56.38;24.98;;;;;;;4.11;100.00;103612.47;5051536;28;20613;-46
2022/01/23 08:00:14;;;;;;;56.70;25.02;;;;;;;4.14;100.00;103613.28;5051769;28;20388;-49
2022/01/23 08:02:40;;;;;;;51.08;23.65;;;;;;;4.15;100.00;103612.38;5054792;28;20115;-47
2022/01/23 08:05:06;;;;;;;53.92;25.27;;;;;;;4.15;100.00;103613.25;5052116;28;20024;-46
2022/01/23 08:07:31;;;;;;;55.08;24.20;;;;;;;4.17;100.00;103616.69;5046062;28;20093;-48
2022/01/23 08:10:02;;;;;;;56.55;25.77;;;;;;;4.18;100.00;103613.16;5053403;28;20111;-50
2022/01/23 08:12:30;;;;;;;63.90;29.10;;;;;;;4.18;100.00;103612.28;5054016;28;20562;-46
2022/01/23 08:14:56;;;;;;;53.30;25.15;;;;;;;4.20;100.00;103607.81;5054934;28;20032;-46
2022/01/23 08:17:25;;;;;;;52.58;25.70;;;;;;;4.22;100.00;103620.06;5035664;28;20036;-45
2022/01/23 08:19:52;;;;;;;59.33;26.27;;;;;;;4.25;100.00;103614.66;5053640;28;20071;-47
2022/01/23 08:22:19;;;;;;;58.80;26.42;;;;;;;4.26;100.00;103613.75;5051456;28;20573;-47
2022/01/23 08:24:44;;;;;;;57.78;25.50;;;;;;;4.29;100.00;103616.31;5053424;28;20469;-46
2022/01/23 08:27:09;;;;;;;56.45;25.92;;;;;;;4.26;100.00;103613.75;5050830;28;20043;-49
2022/01/23 08:29:34;;;;;;;56.55;26.08;;;;;;;4.29;100.00;103624.25;5053629;28;20412;-47
2022/01/23 08:32:00;;;;;;;55.20;25.25;;;;;;;4.29;100.00;103613.66;5056512;28;20071;-49
2022/01/23 08:34:25;;;;;;;56.42;25.80;;;;;;;4.35;100.00;103630.25;5052805;28;20332;-47
2022/01/23 08:36:50;;;;;;;52.53;24.38;;;;;;;4.37;100.00;103628.41;5049672;28;20105;-46
2022/01/23 08:39:21;;;;;;;55.80;25.55;;;;;;;4.40;100.00;103631.81;5048701;28;20017;-47
2022/01/23 08:41:49;;;;;;;54.28;25.20;;;;;;;4.44;100.00;103630.78;5035855;28;20044;-45
2022/01/23 08:44:23;;;;;;;52.05;24.17;;;;;;;4.47;100.00;103632.47;5048654;28;20104;-48
2022/01/23 08:46:49;;;;;;;51.72;24.92;;;;;;;4.49;100.00;103633.28;5050846;28;20027;-45
2022/01/23 08:49:17;;;;;;;54.00;25.60;;;;;;;4.52;100.00;103638.47;5052052;28;20216;-45
2022/01/23 08:51:43;;;;;;;55.10;24.95;;;;;;;4.54;100.00;103641.06;5055769;28;20032;-48
2022/01/23 08:54:09;;;;;;;56.85;26.67;;;;;;;4.54;100.00;103641.91;5046305;28;20032;-46
2022/01/23 08:56:34;;;;;;;59.78;26.58;;;;;;;4.55;100.00;103648.97;5053400;28;20037;-45
2022/01/23 08:59:00;;;;;;;54.70;26.55;;;;;;;4.55;100.00;103648.06;5055447;28;20059;-46
2022/01/23 09:01:25;;;;;;;59.22;27.40;;;;;;;4.53;100.00;103641.97;5049726;28;20040;-47
2022/01/23 09:03:51;;;;;;;56.35;26.48;;;;;;;4.56;100.00;103650.66;5048799;28;20494;-45
2022/01/23 09:06:16;;;;;;;57.88;25.65;;;;;;;4.59;100.00;103644.41;5051725;28;20031;-45
2022/01/23 09:08:42;;;;;;;56.10;25.67;;;;;;;4.60;100.00;103657.59;5045508;28;20604;-47
2022/01/23 09:11:23;;;;;;;55.83;25.60;;;;;;;4.62;100.00;103653.13;5059293;28;20020;-45
2022/01/23 09:16:15;;;;;;;58.88;26.75;;;;;;;4.66;100.00;103646.78;5050898;28;20056;-48
2022/01/23 09:18:40;;;;;;;60.08;28.13;;;;;;;4.70;100.00;103642.28;5055881;28;20598;-47
2022/01/23 09:21:06;;;;;;;65.88;27.38;;;;;;;4.67;100.00;103632.66;5054816;28;20067;-48
2022/01/23 09:23:31;;;;;;;57.30;26.38;;;;;;;4.74;100.00;103645.69;5053020;28;20028;-44
2022/01/23 09:25:59;;;;;;;57.88;28.20;;;;;;;4.75;100.00;103642.09;5052979;28;20024;-44
2022/01/23 09:28:31;;;;;;;66.28;28.67;;;;;;;4.78;100.00;103644.63;5056558;28;20449;-47
2022/01/23 09:30:57;;;;;;;65.15;29.85;;;;;;;4.79;100.00;103641.09;5057776;28;20093;-45
2022/01/23 09:33:22;;;;;;;67.13;29.55;;;;;;;4.81;100.00;103645.38;5056926;28;20024;-47
2022/01/23 09:35:47;;;;;;;64.85;29.30;;;;;;;4.84;100.00;103653.22;5059796;28;20047;-46
2022/01/23 09:38:13;;;;;;;63.65;28.98;;;;;;;4.83;100.00;103648.84;5057413;28;20024;-48
2022/01/23 09:40:41;;;;;;;57.60;27.80;;;;;;;4.83;100.00;103651.50;5053567;28;20561;-48
2022/01/23 09:43:12;;;;;;;61.38;27.63;;;;;;;4.85;100.00;103657.63;5058413;28;20020;-46
2022/01/23 09:45:38;;;;;;;60.42;28.33;;;;;;;4.91;100.00;103653.88;5057902;28;20092;-45
2022/01/23 09:48:04;;;;;;;63.53;28.15;;;;;;;4.96;100.00;103659.03;5055311;28;20127;-49
2022/01/23 09:50:31;;;;;;;58.90;28.08;;;;;;;4.99;100.00;103653.59;5056649;28;20407;-44
2022/01/23 09:52:58;;;;;;;60.38;29.38;;;;;;;5.02;100.00;103651.72;5058185;28;20294;-44
2022/01/23 09:55:26;;;;;;;64.55;29.25;;;;;;;5.09;100.00;103660.31;5043102;28;20873;-47
2022/01/23 09:57:52;;;;;;;62.92;30.20;;;;;;;5.13;100.00;103667.22;5053917;28;20389;-45
2022/01/23 10:00:25;;;;;;;63.20;29.20;;;;;;;5.16;100.00;103663.56;5057324;28;20020;-44
2022/01/23 10:02:51;;;;;;;67.85;29.88;;;;;;;5.18;100.00;103670.56;5037379;28;20084;-46
2022/01/23 10:05:17;;;;;;;64.68;30.95;;;;;;;5.21;100.00;103662.50;5054107;28;20096;-48
2022/01/23 10:07:43;;;;;;;63.42;30.25;;;;;;;5.20;100.00;103668.72;5053743;28;20117;-49
2022/01/23 10:10:19;;;;;;;66.28;31.17;;;;;;;5.21;100.00;103672.22;5056156;28;20027;-49
2022/01/23 10:12:51;;;;;;;65.63;29.95;;;;;;;5.20;100.00;103662.56;5058103;28;20032;-45
2022/01/23 10:15:17;;;;;;;;;;;;;;;5.27;100.00;103669.34;5057458;28;20108;-47
2022/01/23 10:17:42;;;;;;;68.57;29.30;;;;;;;5.30;100.00;103661.28;5056791;28;20371;-49
2022/01/23 10:20:10;;;;;;;71.07;30.60;;;;;;;5.34;100.00;103662.91;5056003;28;20048;-48
2022/01/23 10:22:36;;;;;;;66.78;31.10;;;;;;;5.37;100.00;103661.94;5055712;28;20480;-45
2022/01/23 10:25:10;;;;;;;67.38;30.63;;;;;;;5.38;100.00;103668.94;5058012;28;20040;-48
2022/01/23 10:28:07;;;;;;;67.43;30.33;;;;;;;5.42;100.00;103665.28;5057760;28;20085;-46
2022/01/23 10:30:33;;;;;;;66.80;30.10;;;;;;;5.41;100.00;103656.47;5047892;28;20050;-46
2022/01/23 10:33:14;;;;;;;65.78;30.83;;;;;;;5.45;100.00;103657.22;5057264;28;20032;-47
2022/01/23 10:35:57;;;;;;;63.83;30.85;;;;;;;5.49;100.00;103655.31;5056797;28;20383;-46
2022/01/23 10:38:26;;;;;;;69.43;33.47;;;;;;;5.53;100.00;103656.91;5055442;28;20024;-49
2022/01/23 10:41:07;;;;;;;71.88;31.70;;;;;;;5.58;100.00;103657.59;5058606;28;20476;-47
2022/01/23 10:47:17;;;;;;;68.95;31.77;;;;;;;5.62;100.00;103659.22;4990325;28;20100;-44
2022/01/23 10:49:43;;;;;;;65.13;30.38;;;;;;;5.68;100.00;103664.25;4993434;28;20082;-45
2022/01/23 10:52:24;;;;;;;63.70;29.90;;;;;;;5.75;100.00;103651.63;5029646;28;20033;-47
2022/01/23 10:54:49;;;;;;;67.23;31.10;;;;;;;5.78;100.00;103659.47;5053293;28;20024;-46
2022/01/23 10:57:14;;;;;;;64.38;30.77;;;;;;;5.82;100.00;103662.88;5057895;28;20633;-46
2022/01/23 10:59:48;;;;;;;67.85;31.65;;;;;;;5.83;100.00;103649.53;5057765;28;20027;-45
2022/01/23 11:02:21;;;;;;;64.63;29.98;;;;;;;5.90;100.00;103658.13;5041741;28;20033;-45
2022/01/23 11:04:55;;;;;;;66.20;30.33;;;;;;;5.99;100.00;103649.81;5037852;28;20135;-45
2022/01/23 11:07:22;;;;;;;70.25;30.95;;;;;;;6.04;100.00;103654.94;5040234;28;20494;-46
2022/01/23 11:09:54;;;;;;;62.35;29.40;;;;;;;6.03;100.00;103654.09;5038458;28;20586;-47
2022/01/23 11:12:44;;;;;;;63.60;30.55;;;;;;;6.00;100.00;103645.41;5024070;28;20084;-44
2022/01/23 11:17:59;;;;;;;63.05;30.05;;;;;;;6.07;100.00;103649.53;5050981;28;20085;-43
2022/01/23 11:20:34;;;;;;;62.70;30.30;;;;;;;6.15;100.00;103640.31;5043434;28;20036;-48
2022/01/23 11:23:19;;;;;;;65.13;29.33;;;;;;;6.24;100.00;103639.06;5055917;28;20507;-49
2022/01/23 11:25:56;;;;;;;60.30;28.63;;;;;;;6.27;100.00;103638.09;5056014;28;20449;-44
2022/01/23 11:28:36;;;;;;;59.05;29.35;;;;;;;6.25;100.00;103632.84;5041090;28;20037;-46
2022/01/23 11:31:04;;;;;;;59.22;28.40;;;;;;;6.23;100.00;103632.06;5051357;28;20695;-45
2022/01/23 11:33:30;;;;;;;66.38;29.73;;;;;;;6.26;100.00;103633.69;5055627;28;20032;-44
2022/01/23 11:35:55;;;;;;;61.20;28.42;;;;;;;6.24;100.00;103632.91;5037763;28;20028;-48
2022/01/23 11:38:23;;;;;;;64.53;29.98;;;;;;;6.25;100.00;103627.53;5057547;28;20123;-47
2022/01/23 11:54:38;;;;;;;66.75;28.88;;;;;;;6.43;100.00;103614.41;5052628;28;20142;-47
2022/01/23 11:57:04;;;;;;;59.55;28.20;;;;;;;6.47;100.00;103618.66;5038327;28;20163;-47
2022/01/23 11:59:39;;;;;;;70.82;29.80;;;;;;;6.50;100.00;103610.56;5023344;28;20024;-48
2022/01/23 12:02:15;;;;;;;55.72;27.45;;;;;;;6.58;100.00;103613.75;5047060;28;20574;-45
2022/01/23 12:05:13;;;;;;;60.08;29.70;;;;;;;6.61;100.00;103615.41;5040343;28;20132;-47
2022/01/23 12:07:40;;;;;;;63.90;29.02;;;;;;;6.58;100.00;103619.06;5036536;28;20079;-47
2022/01/23 12:10:28;;;;;;;61.63;29.52;;;;;;;6.58;100.00;103613.75;5019357;28;20411;-49
2022/01/23 12:13:33;;;;;;;67.80;28.67;;;;;;;6.54;100.00;103602.41;5044989;28;20127;-45
2022/01/23 12:18:42;;;;;;;67.22;30.08;;;;;;;6.47;100.00;103603.59;5038117;28;20131;-47
2022/01/23 12:21:29;;;;;;;68.63;30.83;;;;;;;6.55;100.00;103600.59;5052756;28;20495;-47
2022/01/23 12:24:04;;;;;;;68.03;28.92;;;;;;;6.56;100.00;103593.50;5048842;28;20024;-45
2022/01/23 12:26:29;;;;;;;65.00;28.15;;;;;;;6.58;100.00;103600.47;5021124;28;20036;-49
2022/01/23 12:28:55;;;;;;;60.28;26.55;;;;;;;6.60;100.00;103592.44;5057728;28;21403;-47
2022/01/23 12:31:24;;;;;;;61.97;28.70;;;;;;;6.65;100.00;103599.28;5055441;28;20512;-47
2022/01/23 12:33:51;;;;;;;59.50;28.75;;;;;;;6.68;100.00;103590.31;5059265;28;20433;-48
2022/01/23 12:36:16;;;;;;;63.72;28.05;;;;;;;6.72;100.00;103583.91;5056946;28;20028;-47
2022/01/23 12:38:48;;;;;;;56.08;27.70;;;;;;;6.70;100.00;103585.78;5058181;28;20028;-45
2022/01/23 12:41:21;;;;;;;64.22;28.52;;;;;;;6.73;100.00;103583.00;5053316;28;20032;-49
2022/01/23 12:43:46;;;;;;;56.97;26.50;;;;;;;6.68;100.00;103585.84;5043086;28;20032;-48
2022/01/23 12:46:22;;;;;;;60.90;27.88;;;;;;;6.68;100.00;103577.88;5059139;28;20031;-46
2022/01/23 12:48:49;;;;;;;61.08;26.98;;;;;;;6.71;100.00;103583.06;5060686;28;20130;-47
2022/01/23 12:51:17;;;;;;;58.88;26.98;;;;;;;6.72;100.00;103584.81;5058116;28;20029;-47
2022/01/23 12:53:51;;;;;;;58.78;27.05;;;;;;;6.73;100.00;103583.84;5059571;28;20040;-46
2022/01/23 12:56:20;;;;;;;62.55;27.70;;;;;;;6.75;100.00;103574.97;5058329;28;20036;-48
2022/01/23 12:58:54;;;;;;;59.70;26.30;;;;;;;6.69;100.00;103568.16;5059794;28;20021;-46
2022/01/23 13:01:22;;;;;;;61.20;28.17;;;;;;;6.65;100.00;103567.44;5057630;28;20070;-46
2022/01/23 13:03:52;;;;;;;61.47;27.52;;;;;;;6.63;100.00;103565.75;5059705;28;20073;-47
2022/01/23 13:06:28;;;;;;;63.42;28.50;;;;;;;6.63;100.00;103571.06;5053087;28;20059;-50
2022/01/23 13:09:45;;;;;;;58.65;27.58;;;;;;;6.63;100.00;103568.41;5062633;28;20112;-45
2022/01/23 13:26:34;;;;;;;57.00;27.55;;;;;;;6.66;100.00;103553.19;5052481;28;20209;-50
2022/01/23 13:31:39;;;;;;;58.63;26.23;;;;;;;6.57;100.00;103553.63;5044502;28;20522;-47
2022/01/23 13:34:20;;;;;;;58.78;26.45;;;;;;;6.53;100.00;103562.63;5059482;28;20108;-49
2022/01/23 13:36:54;;;;;;;62.33;27.95;;;;;;;6.47;100.00;103558.47;5056788;28;20376;-46
2022/01/23 13:39:29;;;;;;;57.85;25.90;;;;;;;6.42;100.00;103564.91;5052819;28;20388;-45
2022/01/23 13:54:03;;;;;;;65.00;28.50;;;;;;;6.40;100.00;103549.06;5038336;28;20067;-50
2022/01/23 14:00:14;;;;;;;61.67;27.55;;;;;;;6.41;100.00;103550.75;5039123;28;20107;-48
2022/01/23 14:02:44;;;;;;;61.10;28.38;;;;;;;6.39;100.00;103546.47;5031782;28;20044;-45
2022/01/23 14:05:17;;;;;;;64.15;27.67;;;;;;;6.32;100.00;103552.03;5038355;28;20029;-46
2022/01/23 14:07:55;;;;;;;53.35;26.23;;;;;;;6.28;100.00;103534.53;5038688;28;20373;-45
2022/01/23 14:10:24;;;;;;;66.20;27.45;;;;;;;6.26;100.00;103539.03;5038421;28;20502;-45
2022/01/23 14:12:51;;;;;;;56.78;27.30;;;;;;;6.29;100.00;103535.38;5056108;28;20032;-49
2022/01/23 14:15:22;;;;;;;63.25;27.17;;;;;;;6.26;100.00;103536.38;5057967;28;20020;-48
2022/01/23 14:18:03;;;;;;;58.67;27.10;;;;;;;6.29;100.00;103535.38;5058486;28;20032;-45
2022/01/23 14:20:30;;;;;;;58.17;27.98;;;;;;;6.31;100.00;103539.72;5056722;28;20052;-47
2022/01/23 14:22:56;;;;;;;64.20;30.88;;;;;;;6.30;100.00;103527.34;5057588;28;20099;-45
2022/01/23 14:25:27;;;;;;;65.78;31.70;;;;;;;6.34;100.00;103541.34;5040048;28;20421;-46
2022/01/23 14:28:04;;;;;;;57.60;28.63;;;;;;;6.35;100.00;103541.28;5058604;28;20024;-47
2022/01/23 14:30:30;;;;;;;58.85;27.08;;;;;;;6.31;100.00;103536.16;5038778;28;20048;-45
2022/01/23 14:33:05;;;;;;;56.83;26.75;;;;;;;6.27;100.00;103551.38;5057977;28;20031;-44
2022/01/23 14:35:32;;;;;;;57.83;27.33;;;;;;;6.25;100.00;103550.56;5057829;28;20384;-46
2022/01/23 14:38:07;;;;;;;56.55;27.63;;;;;;;6.25;100.00;103552.38;5058353;28;20418;-46
2022/01/23 14:40:33;;;;;;;58.72;28.70;;;;;;;6.21;100.00;103551.66;5059479;28;20549;-46
2022/01/23 14:43:04;;;;;;;59.67;27.75;;;;;;;6.17;100.00;103555.34;5057804;28;20028;-44
2022/01/23 14:45:32;;;;;;;58.38;25.80;;;;;;;6.18;100.00;103553.53;5056791;28;20040;-45
2022/01/23 14:47:57;;;;;;;54.22;26.17;;;;;;;6.17;100.00;103555.34;5057611;28;20046;-46
2022/01/23 14:50:25;;;;;;;54.15;26.30;;;;;;;6.16;100.00;103554.50;5057499;28;20024;-49
2022/01/23 14:52:51;;;;;;;59.15;27.35;;;;;;;6.11;100.00;103547.63;5057637;28;20036;-45
2022/01/23 14:55:17;;;;;;;57.83;26.40;;;;;;;6.11;100.00;103551.16;5057255;28;20032;-48